Time;durP1;ratioP1;P1;durP2;ratioP2;P2;SDS_P1;SDS_P2;PMS_P1;PMS_P2;Temp;Humidity;BMP_temperature;BMP_pressure;BME280_temperature;BME280_humidity;BME280_pressure;Samples;Min_cycle;Max_cycle;Signal;HPM_P1;HPM_P2
2022/05/04 07:03:25;;;;;;;;;;;21.40;41.60;;;;;;4955911;28;20266;-60
2022/05/04 07:05:50;;;;;;;;;;;21.60;41.60;;;;;;4959446;29;19925;-62
2022/05/04 07:08:16;;;;;;;;;;;21.80;40.80;;;;;;4959351;29;19917;-61
2022/05/04 07:10:42;;;;;;;;;;;21.90;39.50;;;;;;4959380;29;19916;-61
2022/05/04 07:13:07;;;;;;;;;;;22.00;39.60;;;;;;4959281;29;19911;-61
2022/05/04 07:15:33;;;;;;;;;;;22.10;38.50;;;;;;4959262;29;19911;-62
2022/05/04 07:17:59;;;;;;;;;;;21.90;37.80;;;;;;4957626;29;19910;-62
2022/05/04 07:20:24;;;;;;;;;;;22.10;38.40;;;;;;4957046;29;19925;-59
2022/05/04 07:22:50;;;;;;;;;;;22.20;37.40;;;;;;4949302;29;20010;-61
2022/05/04 07:25:16;;;;;;;;;;;22.40;38.40;;;;;;4947642;29;19911;-62
2022/05/04 07:27:41;;;;;;;;;;;22.20;36.70;;;;;;4948088;29;19958;-61
2022/05/04 07:30:07;;;;;;;;;;;22.20;37.10;;;;;;4946975;29;20362;-61
2022/05/04 07:32:33;;;;;;;;;;;22.20;36.90;;;;;;4948595;29;19926;-60
2022/05/04 07:34:59;;;;;;;;;;;22.10;37.90;;;;;;4949946;29;19910;-62
2022/05/04 07:37:25;;;;;;;;;;;22.10;37.80;;;;;;4950511;29;20380;-63
2022/05/04 07:42:34;;;;;;;;;;;21.60;38.50;;;;;;4950108;29;20381;-62
2022/05/04 07:45:02;;;;;;;;;;;21.90;40.10;;;;;;4949533;29;19911;-63
2022/05/04 07:47:28;;;;;;;;;;;22.20;38.20;;;;;;4948814;29;19995;-61
2022/05/04 07:49:54;;;;;;;;;;;22.20;38.20;;;;;;4949475;29;19914;-62
2022/05/04 07:52:21;;;;;;;;;;;22.20;38.90;;;;;;4948398;29;19966;-62
2022/05/04 07:54:46;;;;;;;;;;;22.00;41.90;;;;;;4948883;29;19911;-62
2022/05/04 07:57:12;;;;;;;;;;;22.10;41.30;;;;;;4949269;29;19925;-61
2022/05/04 07:59:38;;;;;;;;;;;22.00;41.80;;;;;;4951635;29;19977;-61
2022/05/04 08:04:49;;;;;;;;;;;21.80;42.00;;;;;;4958543;29;19929;-60
2022/05/04 08:07:15;;;;;;;;;;;22.00;43.20;;;;;;4965852;28;19918;-62
2022/05/04 08:09:41;;;;;;;;;;;22.30;43.70;;;;;;4977581;28;19918;-62
2022/05/04 08:12:08;;;;;;;;;;;22.50;42.70;;;;;;4977397;28;19910;-62
2022/05/04 08:14:34;;;;;;;;;;;22.00;43.20;;;;;;4973235;28;19910;-61
2022/05/04 08:17:00;;;;;;;;;;;22.00;43.10;;;;;;4958038;29;19933;-61
2022/05/04 08:19:26;;;;;;;;;;;22.10;43.50;;;;;;4958156;29;20354;-62
2022/05/04 08:21:52;;;;;;;;;;;22.20;44.10;;;;;;4960682;28;19918;-61
2022/05/04 08:24:17;;;;;;;;;;;22.30;43.60;;;;;;4979164;28;20290;-61
2022/05/04 08:26:43;;;;;;;;;;;22.20;44.50;;;;;;4980392;28;20008;-61
2022/05/04 08:29:09;;;;;;;;;;;22.50;44.90;;;;;;4980793;28;20293;-62
2022/05/04 08:31:35;;;;;;;;;;;22.70;44.90;;;;;;4977532;28;19914;-63
2022/05/04 08:34:00;;;;;;;;;;;22.80;43.60;;;;;;4977080;28;19914;-62
2022/05/04 08:36:26;;;;;;;;;;;22.80;44.40;;;;;;4977064;28;19914;-62
2022/05/04 08:38:52;;;;;;;;;;;22.70;44.80;;;;;;4976926;28;19957;-61
2022/05/04 08:41:18;;;;;;;;;;;22.70;44.90;;;;;;4976890;28;19957;-60
2022/05/04 08:43:44;;;;;;;;;;;22.90;44.60;;;;;;4977030;28;19922;-61
2022/05/04 08:46:12;;;;;;;;;;;22.90;43.60;;;;;;4968928;28;19946;-59
2022/05/04 08:48:38;;;;;;;;;;;22.50;44.70;;;;;;4953614;28;20422;-62
2022/05/04 08:51:04;;;;;;;;;;;22.40;45.00;;;;;;4958674;28;19911;-61
2022/05/04 08:53:30;;;;;;;;;;;22.40;45.50;;;;;;4952907;28;19919;-61
2022/05/04 08:55:56;;;;;;;;;;;22.10;46.50;;;;;;4950522;29;20403;-60
2022/05/04 08:58:22;;;;;;;;;;;22.00;47.40;;;;;;4946816;29;19919;-62
2022/05/04 09:00:47;;;;;;;;;;;22.40;47.40;;;;;;4946354;29;19923;-59
2022/05/04 09:03:13;;;;;;;;;;;22.80;45.50;;;;;;4956476;28;19996;-59
2022/05/04 09:05:40;;;;;;;;;;;23.10;45.80;;;;;;4966039;28;19918;-60
2022/05/04 09:08:06;;;;;;;;;;;23.30;44.20;;;;;;4968067;28;19917;-59
2022/05/04 09:10:36;;;;;;;;;;;22.70;45.30;;;;;;4976668;28;19985;-60
2022/05/04 09:13:03;;;;;;;;;;;22.50;46.60;;;;;;4976296;28;19954;-61
2022/05/04 09:15:30;;;;;;;;;;;22.30;46.30;;;;;;4976663;28;19941;-61
2022/05/04 09:18:06;;;;;;;;;;;22.30;47.10;;;;;;4976600;28;19922;-60
2022/05/04 09:20:58;;;;;;;;;;;22.40;47.00;;;;;;4974506;28;19922;-60
2022/05/04 09:23:32;;;;;;;;;;;22.30;47.50;;;;;;4970152;28;19915;-61
2022/05/04 09:26:02;;;;;;;;;;;22.20;47.50;;;;;;4965365;28;20281;-60
2022/05/04 09:28:31;;;;;;;;;;;22.50;48.00;;;;;;4965057;28;19911;-60
2022/05/04 09:30:57;;;;;;;;;;;22.60;46.50;;;;;;4965426;28;19910;-60
2022/05/04 09:33:27;;;;;;;;;;;22.40;47.00;;;;;;4964533;28;19914;-61
2022/05/04 09:35:54;;;;;;;;;;;22.40;46.80;;;;;;4956451;29;19914;-61
2022/05/04 09:46:39;;;;;;;;;;;22.60;48.10;;;;;;4966270;29;19917;-61
2022/05/04 09:49:11;;;;;;;;;;;22.70;47.00;;;;;;4975012;29;19976;-60
2022/05/04 09:51:37;;;;;;;;;;;22.80;47.10;;;;;;4974294;29;19910;-59
2022/05/04 09:54:19;;;;;;;;;;;22.80;47.10;;;;;;4972129;29;19918;-59
2022/05/04 09:56:49;;;;;;;;;;;22.40;46.90;;;;;;4967910;29;20259;-60
2022/05/04 09:59:15;;;;;;;;;;;22.10;49.50;;;;;;4966049;28;19914;-60
2022/05/04 10:01:42;;;;;;;;;;;21.70;49.10;;;;;;4966008;28;19918;-60
2022/05/04 10:04:08;;;;;;;;;;;21.60;50.10;;;;;;4965734;28;19929;-60
2022/05/04 10:06:33;;;;;;;;;;;21.90;50.10;;;;;;4964374;28;19914;-59
2022/05/04 10:09:01;;;;;;;;;;;21.70;50.80;;;;;;4946021;29;20356;-57
2022/05/04 10:11:27;;;;;;;;;;;21.50;50.70;;;;;;4938563;29;19933;-59
2022/05/04 10:13:55;;;;;;;;;;;21.70;51.10;;;;;;4955333;29;19921;-60
2022/05/04 10:16:21;;;;;;;;;;;21.90;51.70;;;;;;4956177;29;20017;-59
2022/05/04 10:18:47;;;;;;;;;;;22.00;50.20;;;;;;4938823;29;20294;-59
2022/05/04 10:21:14;;;;;;;;;;;21.80;50.60;;;;;;4955932;29;19977;-59
2022/05/04 10:24:03;;;;;;;;;;;21.90;51.20;;;;;;4955937;29;19917;-60
2022/05/04 10:26:33;;;;;;;;;;;22.10;50.40;;;;;;4956144;29;19966;-58
2022/05/04 10:31:53;;;;;;;;;;;21.90;53.00;;;;;;4962576;28;19978;-59
2022/05/04 10:34:19;;;;;;;;;;;22.10;51.30;;;;;;4963049;29;19911;-59
2022/05/04 10:36:45;;;;;;;;;;;22.10;52.40;;;;;;4963097;29;20025;-59
2022/05/04 10:39:18;;;;;;;;;;;21.80;51.70;;;;;;4957736;29;19966;-61
2022/05/04 10:41:43;;;;;;;;;;;21.80;52.30;;;;;;4955501;29;19961;-59
2022/05/04 10:44:09;;;;;;;;;;;22.10;51.20;;;;;;4955891;29;20340;-59
2022/05/04 10:46:37;;;;;;;;;;;21.70;51.90;;;;;;4955520;29;19957;-59
2022/05/04 10:49:04;;;;;;;;;;;22.00;51.70;;;;;;4955365;29;19911;-60
2022/05/04 10:51:31;;;;;;;;;;;21.80;52.30;;;;;;4956041;29;19963;-59
2022/05/04 10:54:00;;;;;;;;;;;22.20;53.30;;;;;;4955515;29;20392;-60
2022/05/04 10:56:27;;;;;;;;;;;22.10;51.00;;;;;;4955538;29;19934;-59
2022/05/04 10:58:54;;;;;;;;;;;22.10;51.30;;;;;;4955500;29;20001;-61
2022/05/04 11:01:22;;;;;;;;;;;22.40;51.00;;;;;;4955328;29;19918;-59
2022/05/04 11:03:49;;;;;;;;;;;22.30;50.00;;;;;;4955347;29;19962;-59
2022/05/04 11:06:24;;;;;;;;;;;22.20;51.60;;;;;;4955219;29;20381;-59
2022/05/04 11:08:50;;;;;;;;;;;22.40;49.80;;;;;;4955648;29;20038;-59
2022/05/04 11:11:15;;;;;;;;;;;22.70;49.50;;;;;;4955348;29;20001;-60
2022/05/04 11:13:44;;;;;;;;;;;22.60;47.40;;;;;;4955504;29;20005;-59
2022/05/04 11:16:09;;;;;;;;;;;21.90;47.70;;;;;;4955764;29;19934;-59
2022/05/04 11:18:35;;;;;;;;;;;21.60;49.20;;;;;;4955293;29;20358;-59
2022/05/04 11:21:05;;;;;;;;;;;21.50;49.60;;;;;;4956621;29;20429;-60
2022/05/04 11:23:31;;;;;;;;;;;21.80;48.50;;;;;;4959069;29;20005;-58
2022/05/04 11:25:56;;;;;;;;;;;21.50;49.30;;;;;;4961962;29;19965;-59
2022/05/04 11:28:22;;;;;;;;;;;21.80;49.80;;;;;;4962049;29;19910;-58
2022/05/04 11:30:53;;;;;;;;;;;22.20;47.80;;;;;;4939696;29;20141;-60
2022/05/04 11:33:19;;;;;;;;;;;22.20;46.80;;;;;;4937588;29;19910;-58
2022/05/04 11:35:50;;;;;;;;;;;22.30;47.30;;;;;;4936909;29;19953;-61
2022/05/04 11:38:23;;;;;;;;;;;22.60;46.60;;;;;;4936268;29;19911;-62
2022/05/04 11:40:49;;;;;;;;;;;23.00;45.00;;;;;;4935934;29;20384;-60
2022/05/04 11:43:41;;;;;;;;;;;23.20;41.50;;;;;;4937463;29;20001;-59
2022/05/04 11:46:09;;;;;;;;;;;23.20;40.70;;;;;;4935837;29;19911;-60
2022/05/04 11:48:35;;;;;;;;;;;23.40;41.60;;;;;;4938854;29;20274;-61
2022/05/04 11:51:01;;;;;;;;;;;23.40;39.60;;;;;;4938359;29;20009;-60
2022/05/04 11:53:27;;;;;;;;;;;23.20;37.80;;;;;;4938463;29;19965;-61
2022/05/04 11:55:52;;;;;;;;;;;23.20;43.60;;;;;;4938357;29;20371;-60
2022/05/04 11:58:18;;;;;;;;;;;23.50;41.10;;;;;;4938450;29;19911;-59
2022/05/04 12:00:43;;;;;;;;;;;23.50;36.80;;;;;;4938168;29;19918;-60
2022/05/04 12:03:09;;;;;;;;;;;23.60;37.00;;;;;;4938398;29;20367;-60
2022/05/04 12:05:36;;;;;;;;;;;23.70;36.10;;;;;;4938362;29;20371;-63
2022/05/04 12:08:04;;;;;;;;;;;23.90;35.10;;;;;;4938133;29;20015;-63
2022/05/04 12:10:31;;;;;;;;;;;23.80;34.80;;;;;;4938558;29;19914;-60
2022/05/04 12:12:58;;;;;;;;;;;23.80;35.40;;;;;;4938095;29;19911;-62
2022/05/04 12:15:26;;;;;;;;;;;23.90;36.00;;;;;;4938645;29;19918;-61
2022/05/04 12:17:56;;;;;;;;;;;24.00;35.80;;;;;;4938155;29;20006;-63
2022/05/04 12:20:22;;;;;;;;;;;24.10;34.30;;;;;;4938020;29;19954;-60
2022/05/04 12:22:48;;;;;;;;;;;24.10;32.80;;;;;;4937735;29;20437;-62
2022/05/04 12:25:13;;;;;;;;;;;24.10;34.40;;;;;;4938048;29;20438;-60
2022/05/04 12:27:39;;;;;;;;;;;24.10;34.60;;;;;;4937982;29;19915;-60
2022/05/04 12:33:08;;;;;;;;;;;24.20;31.60;;;;;;4937980;29;20066;-60
2022/05/04 12:35:37;;;;;;;;;;;24.00;31.70;;;;;;4938001;29;19930;-60
2022/05/04 12:38:03;;;;;;;;;;;23.80;31.30;;;;;;4938217;29;19938;-61
2022/05/04 12:40:33;;;;;;;;;;;23.40;32.30;;;;;;4937784;29;19926;-60
2022/05/04 12:43:00;;;;;;;;;;;23.20;33.10;;;;;;4938169;29;20420;-60
2022/05/04 12:45:25;;;;;;;;;;;23.50;32.10;;;;;;4938504;29;20330;-61
2022/05/04 12:47:52;;;;;;;;;;;23.60;33.00;;;;;;4937602;29;19918;-59
2022/05/04 12:50:19;;;;;;;;;;;24.00;35.70;;;;;;4937734;29;19911;-58
2022/05/04 12:52:46;;;;;;;;;;;24.10;35.00;;;;;;4937282;29;19958;-57
2022/05/04 12:55:11;;;;;;;;;;;24.20;33.40;;;;;;4937009;29;19911;-57
2022/05/04 12:57:37;;;;;;;;;;;24.40;34.10;;;;;;4937590;29;20005;-55
2022/05/04 13:00:04;;;;;;;;;;;24.40;33.00;;;;;;4935792;29;19926;-58
2022/05/04 13:02:29;;;;;;;;;;;24.40;33.50;;;;;;4937366;29;19927;-59
2022/05/04 13:04:55;;;;;;;;;;;24.50;33.90;;;;;;4937639;29;19915;-58
2022/05/04 13:07:20;;;;;;;;;;;24.70;34.40;;;;;;4936449;29;20278;-61
2022/05/04 13:09:46;;;;;;;;;;;24.90;33.90;;;;;;4946815;29;20286;-60
2022/05/04 13:12:12;;;;;;;;;;;24.70;31.10;;;;;;4946100;29;19911;-57
2022/05/04 13:14:38;;;;;;;;;;;24.50;33.10;;;;;;4947888;29;19969;-60
2022/05/04 13:17:04;;;;;;;;;;;24.40;33.20;;;;;;4946816;29;20327;-60
2022/05/04 13:19:29;;;;;;;;;;;24.60;33.70;;;;;;4946420;29;19914;-58
2022/05/04 13:21:55;;;;;;;;;;;24.60;33.70;;;;;;4953642;29;19910;-56
2022/05/04 13:24:21;;;;;;;;;;;24.40;33.20;;;;;;4956856;29;19957;-56
2022/05/04 13:26:46;;;;;;;;;;;24.30;32.30;;;;;;4956684;29;19911;-57
2022/05/04 13:29:12;;;;;;;;;;;23.90;32.30;;;;;;4956703;29;20429;-57
2022/05/04 13:31:37;;;;;;;;;;;23.60;33.60;;;;;;4957001;29;19911;-58
2022/05/04 13:34:03;;;;;;;;;;;23.70;33.90;;;;;;4956612;29;19914;-58
2022/05/04 13:36:28;;;;;;;;;;;23.60;33.70;;;;;;4956664;29;19911;-56
2022/05/04 13:38:54;;;;;;;;;;;23.80;34.70;;;;;;4956478;29;19910;-56
2022/05/04 13:41:20;;;;;;;;;;;24.10;34.20;;;;;;4950282;29;19929;-55
2022/05/04 13:43:46;;;;;;;;;;;24.20;33.80;;;;;;4928889;29;19911;-57
2022/05/04 13:46:12;;;;;;;;;;;23.90;31.30;;;;;;4946881;29;20322;-56
2022/05/04 13:48:40;;;;;;;;;;;23.10;32.90;;;;;;4948012;29;19911;-56
2022/05/04 13:53:50;;;;;;;;;;;22.90;35.60;;;;;;4956558;29;19933;-55
2022/05/04 13:56:15;;;;;;;;;;;22.70;34.50;;;;;;4955249;29;19922;-56
2022/05/04 13:58:41;;;;;;;;;;;23.10;34.10;;;;;;4946625;28;20054;-56
2022/05/04 14:01:07;;;;;;;;;;;23.40;34.40;;;;;;4955293;28;19929;-57
2022/05/04 14:03:35;;;;;;;;;;;23.40;34.50;;;;;;4946656;28;19933;-57
2022/05/04 14:06:01;;;;;;;;;;;23.60;34.10;;;;;;4961989;29;19918;-55
2022/05/04 14:08:26;;;;;;;;;;;23.30;34.90;;;;;;4981979;28;19981;-56
2022/05/04 14:10:57;;;;;;;;;;;22.70;35.60;;;;;;4991581;28;19910;-57
2022/05/04 14:13:29;;;;;;;;;;;22.90;36.20;;;;;;4952260;29;19915;-58
2022/05/04 14:15:56;;;;;;;;;;;23.00;35.30;;;;;;4939359;29;19915;-59
2022/05/04 14:18:22;;;;;;;;;;;22.60;34.40;;;;;;4936294;29;19911;-57
2022/05/04 14:20:48;;;;;;;;;;;22.70;36.10;;;;;;4942225;29;20374;-59
2022/05/04 14:23:14;;;;;;;;;;;22.70;35.80;;;;;;4947323;29;20653;-56
2022/05/04 14:25:39;;;;;;;;;;;22.80;36.30;;;;;;4947763;29;20005;-56
2022/05/04 14:28:05;;;;;;;;;;;23.00;35.40;;;;;;4945421;29;20417;-59
2022/05/04 14:30:31;;;;;;;;;;;23.10;36.10;;;;;;4942965;29;19917;-58
2022/05/04 14:32:56;;;;;;;;;;;23.10;35.60;;;;;;4943994;28;20369;-59
2022/05/04 14:35:22;;;;;;;;;;;23.20;35.50;;;;;;4942515;29;19914;-57
2022/05/04 14:37:47;;;;;;;;;;;23.20;35.40;;;;;;4942433;29;19910;-57
2022/05/04 14:40:13;;;;;;;;;;;23.20;35.10;;;;;;4947876;29;20426;-57
2022/05/04 14:42:39;;;;;;;;;;;23.10;35.80;;;;;;4944187;28;19922;-56
2022/05/04 14:45:05;;;;;;;;;;;23.00;37.20;;;;;;4947017;29;19974;-56
2022/05/04 14:47:30;;;;;;;;;;;23.10;37.70;;;;;;4945382;29;19953;-56
2022/05/04 14:49:56;;;;;;;;;;;23.20;39.10;;;;;;4937367;29;19922;-57
2022/05/04 14:52:22;;;;;;;;;;;22.70;38.50;;;;;;4938057;29;19965;-54
2022/05/04 14:54:47;;;;;;;;;;;22.50;40.70;;;;;;4940127;29;20363;-56
2022/05/04 14:57:15;;;;;;;;;;;22.50;42.30;;;;;;4945707;29;19917;-58
2022/05/04 14:59:41;;;;;;;;;;;22.40;44.00;;;;;;4946340;28;19911;-56
2022/05/04 15:02:06;;;;;;;;;;;22.70;43.60;;;;;;4946083;29;19990;-55
2022/05/04 15:07:17;;;;;;;;;;;22.20;45.20;;;;;;4943324;29;19938;-57
2022/05/04 15:09:43;;;;;;;;;;;22.50;45.40;;;;;;4948564;29;20061;-55
2022/05/04 15:12:08;;;;;;;;;;;22.60;44.00;;;;;;4948752;29;19982;-56
2022/05/04 15:14:35;;;;;;;;;;;22.70;44.20;;;;;;4947589;29;19917;-56
2022/05/04 15:17:01;;;;;;;;;;;22.60;43.50;;;;;;4947363;28;19910;-56
2022/05/04 15:19:27;;;;;;;;;;;22.70;43.90;;;;;;4954360;28;19969;-55
2022/05/04 15:21:52;;;;;;;;;;;22.80;43.80;;;;;;4978135;28;19914;-57
2022/05/04 15:24:18;;;;;;;;;;;22.80;44.40;;;;;;4978163;28;19945;-56
2022/05/04 15:26:43;;;;;;;;;;;22.90;44.30;;;;;;4978340;28;19914;-56
2022/05/04 15:29:09;;;;;;;;;;;22.80;44.80;;;;;;4968014;28;19926;-56
2022/05/04 15:31:34;;;;;;;;;;;22.60;44.60;;;;;;4954501;29;19915;-57
2022/05/04 15:34:00;;;;;;;;;;;22.70;45.10;;;;;;4950268;29;20413;-56
2022/05/04 15:36:25;;;;;;;;;;;22.70;45.00;;;;;;4948305;29;19910;-58
2022/05/04 15:38:51;;;;;;;;;;;22.40;44.50;;;;;;4950164;29;19910;-57
2022/05/04 15:41:17;;;;;;;;;;;22.40;45.80;;;;;;4948626;29;20235;-58
2022/05/04 15:43:42;;;;;;;;;;;22.00;45.10;;;;;;4951050;29;19910;-58
2022/05/04 15:46:08;;;;;;;;;;;22.10;45.40;;;;;;4959268;29;20059;-57
2022/05/04 15:48:35;;;;;;;;;;;22.00;45.50;;;;;;4959181;29;19933;-57
2022/05/04 15:51:01;;;;;;;;;;;22.20;45.60;;;;;;4959494;29;20274;-56
2022/05/04 15:53:27;;;;;;;;;;;22.40;45.40;;;;;;4959217;29;19914;-57
2022/05/04 15:55:52;;;;;;;;;;;22.50;45.30;;;;;;4949807;29;19926;-60
2022/05/04 15:58:18;;;;;;;;;;;22.70;43.90;;;;;;4950515;29;19911;-57
2022/05/04 16:00:44;;;;;;;;;;;22.90;42.10;;;;;;4947817;29;20277;-57
2022/05/04 16:05:53;;;;;;;;;;;22.90;38.10;;;;;;4947561;29;20330;-57
2022/05/04 16:08:19;;;;;;;;;;;22.90;38.90;;;;;;4948354;29;19911;-59
2022/05/04 16:10:44;;;;;;;;;;;22.90;39.30;;;;;;4948701;29;19911;-58
2022/05/04 16:13:10;;;;;;;;;;;23.00;40.10;;;;;;4947039;29;20124;-57
2022/05/04 16:15:36;;;;;;;;;;;23.10;40.00;;;;;;4948642;29;19914;-58
2022/05/04 16:23:30;;;;;;;;;;;23.00;38.80;;;;;;4947520;29;19961;-62
2022/05/04 16:25:57;;;;;;;;;;;22.70;38.10;;;;;;4951466;29;19910;-61
2022/05/04 16:28:22;;;;;;;;;;;22.50;39.20;;;;;;4950478;29;19919;-58
2022/05/04 16:30:48;;;;;;;;;;;22.40;39.90;;;;;;4947162;29;19922;-59
2022/05/04 16:33:13;;;;;;;;;;;22.40;40.30;;;;;;4938394;29;19915;-59
2022/05/04 16:35:42;;;;;;;;;;;22.50;40.00;;;;;;4958807;29;19911;-59
2022/05/04 16:38:08;;;;;;;;;;;22.50;40.40;;;;;;4958459;29;19916;-60
2022/05/04 16:40:34;;;;;;;;;;;22.40;40.80;;;;;;4959862;29;20365;-60
2022/05/04 16:42:59;;;;;;;;;;;22.40;39.40;;;;;;4958016;29;20077;-61
2022/05/04 16:45:25;;;;;;;;;;;22.30;38.30;;;;;;4958284;29;19912;-61
2022/05/04 16:47:51;;;;;;;;;;;22.20;39.30;;;;;;4968324;29;19921;-65
2022/05/04 16:50:16;;;;;;;;;;;22.20;39.80;;;;;;4969031;29;19921;-62
2022/05/04 16:52:45;;;;;;;;;;;22.20;40.30;;;;;;4968668;29;20282;-58
2022/05/04 16:55:12;;;;;;;;;;;22.20;40.00;;;;;;4964487;29;19911;-59
2022/05/04 16:57:37;;;;;;;;;;;22.20;41.40;;;;;;4946468;29;19966;-58
2022/05/04 17:00:03;;;;;;;;;;;22.30;41.20;;;;;;4964875;29;19922;-61
2022/05/04 17:02:29;;;;;;;;;;;22.20;45.40;;;;;;4971376;29;19918;-57
2022/05/04 17:04:54;;;;;;;;;;;22.00;43.00;;;;;;4969483;29;19915;-59
2022/05/04 17:07:20;;;;;;;;;;;21.90;44.20;;;;;;4972083;29;19981;-59
2022/05/04 17:09:45;;;;;;;;;;;21.90;46.20;;;;;;4969114;29;19949;-61
2022/05/04 17:12:11;;;;;;;;;;;21.80;46.50;;;;;;4959016;29;20294;-60
2022/05/04 17:14:36;;;;;;;;;;;21.70;49.00;;;;;;4951901;29;20422;-60
2022/05/04 17:17:02;;;;;;;;;;;21.50;49.00;;;;;;4948300;29;21261;-62
2022/05/04 17:19:27;;;;;;;;;;;21.50;48.70;;;;;;4946066;29;20263;-59
2022/05/04 17:21:53;;;;;;;;;;;21.50;48.70;;;;;;4942595;29;19922;-63
2022/05/04 17:24:19;;;;;;;;;;;21.50;47.70;;;;;;4948393;29;20331;-59
2022/05/04 17:26:45;;;;;;;;;;;21.50;48.00;;;;;;4948865;29;19969;-60
2022/05/04 17:29:11;;;;;;;;;;;21.40;48.30;;;;;;4955082;29;19915;-59
2022/05/04 17:31:36;;;;;;;;;;;21.40;48.40;;;;;;4954050;29;19921;-60
2022/05/04 17:36:46;;;;;;;;;;;21.00;49.50;;;;;;4951912;29;19918;-61
2022/05/04 17:39:13;;;;;;;;;;;20.80;50.50;;;;;;4949504;29;19911;-62
2022/05/04 17:41:39;;;;;;;;;;;20.50;51.50;;;;;;4948374;29;19919;-62
2022/05/04 17:44:06;;;;;;;;;;;20.30;52.40;;;;;;4947121;29;20434;-62
2022/05/04 17:46:34;;;;;;;;;;;20.10;53.20;;;;;;4935679;29;19922;-63
2022/05/04 17:49:00;;;;;;;;;;;20.00;53.80;;;;;;4935803;29;19918;-62
2022/05/04 17:51:26;;;;;;;;;;;20.00;52.40;;;;;;4935761;29;20418;-62
2022/05/04 17:53:53;;;;;;;;;;;19.80;51.50;;;;;;4940724;29;19961;-61
2022/05/04 17:56:19;;;;;;;;;;;19.90;50.50;;;;;;4940879;29;19918;-63
2022/05/04 17:58:45;;;;;;;;;;;19.80;51.20;;;;;;4938729;29;19917;-63
2022/05/04 18:01:11;;;;;;;;;;;19.50;52.90;;;;;;4947667;29;19919;-61
2022/05/04 18:03:37;;;;;;;;;;;19.40;54.00;;;;;;4955477;29;19926;-66
2022/05/04 18:06:04;;;;;;;;;;;19.20;55.10;;;;;;4955873;29;20353;-64
2022/05/04 18:08:30;;;;;;;;;;;19.20;55.10;;;;;;4955401;29;20271;-62
2022/05/04 18:10:56;;;;;;;;;;;19.20;55.90;;;;;;4955602;29;20454;-69
2022/05/04 18:13:22;;;;;;;;;;;19.00;55.30;;;;;;4955548;29;19950;-68
2022/05/04 18:15:47;;;;;;;;;;;18.90;55.60;;;;;;4955551;29;20374;-62
2022/05/04 18:18:13;;;;;;;;;;;18.80;55.20;;;;;;4955596;29;19915;-66
2022/05/04 18:20:39;;;;;;;;;;;18.70;55.00;;;;;;4955379;29;19919;-64
2022/05/04 18:23:07;;;;;;;;;;;18.70;54.80;;;;;;4955517;29;19942;-64
2022/05/04 18:25:38;;;;;;;;;;;18.50;55.60;;;;;;4962710;29;19910;-66
2022/05/04 18:28:07;;;;;;;;;;;18.40;54.70;;;;;;4975267;29;19918;-64
2022/05/04 18:30:33;;;;;;;;;;;18.30;54.50;;;;;;4976779;29;19934;-65
2022/05/04 18:32:59;;;;;;;;;;;18.10;56.00;;;;;;4976227;29;19911;-69
2022/05/04 18:35:26;;;;;;;;;;;18.00;55.70;;;;;;4966164;29;19934;-66
2022/05/04 18:37:51;;;;;;;;;;;17.80;55.20;;;;;;4960267;29;19910;-62
2022/05/04 18:40:17;;;;;;;;;;;17.80;56.10;;;;;;4956039;29;20387;-62
2022/05/04 18:42:43;;;;;;;;;;;17.70;56.50;;;;;;4955432;29;19918;-60
2022/05/04 18:45:09;;;;;;;;;;;17.60;57.00;;;;;;4955496;29;19910;-62
2022/05/04 18:47:35;;;;;;;;;;;17.60;57.00;;;;;;4954829;29;19918;-60
2022/05/04 18:50:00;;;;;;;;;;;17.60;56.60;;;;;;4955113;29;19910;-62
2022/05/04 18:52:26;;;;;;;;;;;17.50;56.30;;;;;;4954773;29;20019;-60
2022/05/04 18:54:52;;;;;;;;;;;17.50;56.00;;;;;;4954835;29;20347;-61
2022/05/04 18:57:17;;;;;;;;;;;17.40;56.10;;;;;;4954840;29;20315;-62
2022/05/04 18:59:43;;;;;;;;;;;17.40;56.60;;;;;;4955053;29;19961;-63
2022/05/04 19:02:09;;;;;;;;;;;17.40;56.60;;;;;;4955749;29;20429;-62
2022/05/04 19:04:34;;;;;;;;;;;17.60;55.60;;;;;;4954514;28;19943;-61
2022/05/04 19:07:00;;;;;;;;;;;17.80;55.20;;;;;;4955083;29;20277;-62
2022/05/04 19:09:25;;;;;;;;;;;17.70;54.90;;;;;;4954707;29;20382;-62
2022/05/04 19:11:51;;;;;;;;;;;17.70;55.10;;;;;;4955135;29;20380;-60
2022/05/04 19:14:17;;;;;;;;;;;17.70;55.20;;;;;;4954652;29;19911;-64
2022/05/04 19:16:44;;;;;;;;;;;17.60;55.80;;;;;;4955121;29;19980;-63
2022/05/04 19:19:13;;;;;;;;;;;17.40;56.30;;;;;;4955065;29;19961;-61
2022/05/04 19:21:38;;;;;;;;;;;17.30;57.50;;;;;;4954306;29;19918;-61
2022/05/04 19:24:04;;;;;;;;;;;17.30;57.10;;;;;;4953413;29;19910;-61
2022/05/04 19:26:29;;;;;;;;;;;17.40;56.50;;;;;;4954592;29;19958;-59
2022/05/04 19:28:55;;;;;;;;;;;17.30;57.30;;;;;;4955079;29;19915;-59
2022/05/04 19:31:21;;;;;;;;;;;17.30;57.10;;;;;;4954644;29;20046;-62
2022/05/04 19:33:46;;;;;;;;;;;17.40;56.50;;;;;;4954040;29;19934;-60
2022/05/04 19:36:12;;;;;;;;;;;17.30;56.50;;;;;;4954286;29;19915;-58
2022/05/04 19:38:38;;;;;;;;;;;17.30;56.50;;;;;;4953858;29;20379;-59
2022/05/04 19:41:03;;;;;;;;;;;17.30;56.10;;;;;;4953918;29;19978;-60
2022/05/04 19:43:29;;;;;;;;;;;17.30;56.40;;;;;;4953864;29;19910;-59
2022/05/04 19:45:54;;;;;;;;;;;17.30;55.30;;;;;;4954436;29;20358;-59
2022/05/04 19:48:20;;;;;;;;;;;17.40;54.90;;;;;;4954280;29;19933;-57
2022/05/04 19:50:46;;;;;;;;;;;17.30;55.70;;;;;;4954623;29;19980;-57
2022/05/04 19:53:12;;;;;;;;;;;17.30;56.20;;;;;;4954962;29;19914;-59
2022/05/04 19:55:37;;;;;;;;;;;17.30;55.80;;;;;;4954170;29;19921;-59
2022/05/04 19:58:03;;;;;;;;;;;17.30;54.80;;;;;;4954299;29;19964;-61
2022/05/04 20:00:29;;;;;;;;;;;17.30;55.60;;;;;;4953936;29;20290;-60
2022/05/04 20:02:54;;;;;;;;;;;17.30;55.50;;;;;;4954399;28;19942;-60
2022/05/04 20:05:20;;;;;;;;;;;17.30;54.60;;;;;;4957374;29;20005;-59
2022/05/04 20:07:45;;;;;;;;;;;17.30;54.50;;;;;;4957624;29;19917;-60
2022/05/04 20:10:11;;;;;;;;;;;17.10;55.50;;;;;;4957657;29;20362;-59
2022/05/04 20:12:37;;;;;;;;;;;17.10;56.20;;;;;;4957531;29;19937;-62
2022/05/04 20:15:03;;;;;;;;;;;17.00;56.70;;;;;;4957759;29;19911;-60
2022/05/04 20:17:29;;;;;;;;;;;16.90;57.00;;;;;;4957320;29;20009;-60
2022/05/04 20:19:54;;;;;;;;;;;16.80;57.00;;;;;;4957328;29;19978;-61
2022/05/04 20:22:20;;;;;;;;;;;16.80;56.90;;;;;;4957424;29;20009;-60
2022/05/04 20:24:46;;;;;;;;;;;16.80;56.90;;;;;;4957570;29;19946;-59
2022/05/04 20:27:12;;;;;;;;;;;16.80;56.20;;;;;;4956649;29;19961;-59
2022/05/04 20:29:37;;;;;;;;;;;16.80;56.50;;;;;;4956594;29;20379;-61
2022/05/04 20:32:03;;;;;;;;;;;16.80;57.10;;;;;;4956668;29;19926;-59
2022/05/04 20:34:29;;;;;;;;;;;16.70;57.20;;;;;;4956467;29;19910;-59
2022/05/04 20:36:55;;;;;;;;;;;16.80;56.80;;;;;;4956340;29;20322;-60
2022/05/04 20:39:20;;;;;;;;;;;16.80;56.20;;;;;;4956459;29;20013;-60
2022/05/04 20:41:46;;;;;;;;;;;16.80;56.20;;;;;;4956932;29;19954;-60
2022/05/04 20:44:12;;;;;;;;;;;16.80;56.90;;;;;;4956946;29;19941;-62
2022/05/04 20:46:38;;;;;;;;;;;16.70;57.30;;;;;;4956886;29;20334;-61
2022/05/04 20:49:06;;;;;;;;;;;16.60;57.70;;;;;;4957136;29;19921;-58
2022/05/04 20:54:16;;;;;;;;;;;16.50;58.80;;;;;;4957318;29;20039;-60
2022/05/04 20:56:41;;;;;;;;;;;16.50;58.50;;;;;;4956270;29;20008;-59
2022/05/04 20:59:08;;;;;;;;;;;16.40;58.90;;;;;;4955978;29;19918;-60
2022/05/04 21:01:34;;;;;;;;;;;16.40;59.10;;;;;;4955856;29;20009;-59
2022/05/04 21:04:02;;;;;;;;;;;16.40;58.60;;;;;;4956036;29;21436;-60
2022/05/04 21:06:27;;;;;;;;;;;16.30;59.00;;;;;;4956017;29;20359;-60
2022/05/04 21:08:56;;;;;;;;;;;16.30;59.50;;;;;;4956162;29;19921;-58
2022/05/04 21:11:25;;;;;;;;;;;16.30;58.70;;;;;;4955902;29;19993;-60
2022/05/04 21:13:50;;;;;;;;;;;16.40;57.60;;;;;;4956167;29;19911;-58
2022/05/04 21:16:16;;;;;;;;;;;16.50;57.40;;;;;;4956209;28;19957;-60
2022/05/04 21:18:41;;;;;;;;;;;16.70;55.60;;;;;;4956467;29;19985;-60
2022/05/04 21:21:08;;;;;;;;;;;16.70;55.00;;;;;;4956347;29;19923;-59
2022/05/04 21:23:34;;;;;;;;;;;16.60;56.20;;;;;;4946907;29;19919;-59
2022/05/04 21:26:00;;;;;;;;;;;16.50;55.90;;;;;;4937689;29;19934;-59
2022/05/04 21:28:26;;;;;;;;;;;16.50;56.00;;;;;;4937372;29;19915;-59
2022/05/04 21:30:52;;;;;;;;;;;16.50;56.00;;;;;;4937613;29;19911;-59
2022/05/04 21:33:17;;;;;;;;;;;16.50;56.20;;;;;;4937721;29;19918;-59
2022/05/04 21:35:43;;;;;;;;;;;16.50;56.10;;;;;;4937865;29;19942;-61
2022/05/04 21:38:09;;;;;;;;;;;16.30;57.30;;;;;;4937762;29;19958;-59
2022/05/04 21:40:35;;;;;;;;;;;16.20;58.00;;;;;;4937241;29;20426;-60
2022/05/04 21:43:01;;;;;;;;;;;16.10;58.20;;;;;;4937505;29;19977;-60
2022/05/04 21:45:26;;;;;;;;;;;16.00;57.80;;;;;;4937565;29;20005;-60
2022/05/04 21:47:52;;;;;;;;;;;16.00;57.10;;;;;;4937374;29;20010;-60
2022/05/04 21:50:18;;;;;;;;;;;16.00;58.20;;;;;;4937603;29;19918;-61
2022/05/04 21:52:44;;;;;;;;;;;15.90;58.50;;;;;;4937565;29;19918;-59